sensor_id;sensor_type;location;lat;lon;timestamp;pressure;altitude;pressure_sealevel;temperature;humidity
28354;BME280;15603;50.878;8.036;2023-10-08T00:01:23;145058.22;;;7.59;100.00
28354;BME280;15603;50.878;8.036;2023-10-08T00:03:50;144969.72;;;7.22;100.00
28354;BME280;15603;50.878;8.036;2023-10-08T00:06:19;145065.50;;;7.62;100.00
28354;BME280;15603;50.878;8.036;2023-10-08T00:08:48;144961.22;;;7.18;100.00
28354;BME280;15603;50.878;8.036;2023-10-08T00:11:16;145030.34;;;7.47;100.00
28354;BME280;15603;50.878;8.036;2023-10-08T00:13:44;145057.03;;;7.59;100.00
28354;BME280;15603;50.878;8.036;2023-10-08T00:16:13;145064.28;;;7.62;100.00
28354;BME280;15603;50.878;8.036;2023-10-08T00:18:44;145050.94;;;7.56;100.00
28354;BME280;15603;50.878;8.036;2023-10-08T00:21:21;145041.22;;;7.52;100.00
28354;BME280;15603;50.878;8.036;2023-10-08T00:23:55;144945.44;;;7.12;100.00
28354;BME280;15603;50.878;8.036;2023-10-08T00:26:27;145026.69;;;7.46;100.00
28354;BME280;15603;50.878;8.036;2023-10-08T00:29:04;145019.44;;;7.43;100.00
28354;BME280;15603;50.878;8.036;2023-10-08T00:31:44;145021.84;;;7.44;100.00
28354;BME280;15603;50.878;8.036;2023-10-08T00:34:13;145010.94;;;7.39;100.00
28354;BME280;15603;50.878;8.036;2023-10-08T00:36:42;145000.00;;;7.35;100.00
28354;BME280;15603;50.878;8.036;2023-10-08T00:39:10;144998.81;;;7.34;100.00
28354;BME280;15603;50.878;8.036;2023-10-08T00:41:42;144903.00;;;6.94;100.00
28354;BME280;15603;50.878;8.036;2023-10-08T00:44:11;144979.41;;;7.26;100.00
28354;BME280;15603;50.878;8.036;2023-10-08T00:46:45;144966.06;;;7.20;100.00
28354;BME280;15603;50.878;8.036;2023-10-08T00:49:16;144946.69;;;7.12;100.00
28354;BME280;15603;50.878;8.036;2023-10-08T00:52:03;144915.16;;;6.99;100.00
28354;BME280;15603;50.878;8.036;2023-10-08T00:54:52;144853.31;;;6.73;100.00
28354;BME280;15603;50.878;8.036;2023-10-08T00:57:31;144812.09;;;6.55;100.00
28354;BME280;15603;50.878;8.036;2023-10-08T01:00:04;144896.97;;;6.91;100.00
28354;BME280;15603;50.878;8.036;2023-10-08T01:02:33;144886.03;;;6.86;100.00
28354;BME280;15603;50.878;8.036;2023-10-08T01:05:14;144881.19;;;6.84;100.00
28354;BME280;15603;50.878;8.036;2023-10-08T01:07:45;144856.97;;;6.74;100.00
28354;BME280;15603;50.878;8.036;2023-10-08T01:10:15;144863.00;;;6.77;100.00
28354;BME280;15603;50.878;8.036;2023-10-08T01:12:47;144785.44;;;6.44;100.00
28354;BME280;15603;50.878;8.036;2023-10-08T01:15:32;144781.78;;;6.42;100.00
28354;BME280;15603;50.878;8.036;2023-10-08T01:18:03;144881.19;;;6.84;100.00
28354;BME280;15603;50.878;8.036;2023-10-08T01:20:42;144767.25;;;6.36;100.00
28354;BME280;15603;50.878;8.036;2023-10-08T01:23:12;144849.66;;;6.71;100.00
28354;BME280;15603;50.878;8.036;2023-10-08T01:25:49;144835.13;;;6.65;100.00
28354;BME280;15603;50.878;8.036;2023-10-08T01:28:24;144823.00;;;6.60;100.00
28354;BME280;15603;50.878;8.036;2023-10-08T01:30:57;144818.16;;;6.58;100.00
28354;BME280;15603;50.878;8.036;2023-10-08T01:33:27;144757.56;;;6.32;100.00
28354;BME280;15603;50.878;8.036;2023-10-08T01:35:58;144755.13;;;6.31;100.00
28354;BME280;15603;50.878;8.036;2023-10-08T01:38:31;144832.69;;;6.64;100.00
28354;BME280;15603;50.878;8.036;2023-10-08T01:41:01;144841.19;;;6.67;100.00
28354;BME280;15603;50.878;8.036;2023-10-08T01:43:37;144818.16;;;6.58;100.00
28354;BME280;15603;50.878;8.036;2023-10-08T01:46:05;144906.66;;;6.95;100.00
28354;BME280;15603;50.878;8.036;2023-10-08T01:48:38;144924.84;;;7.03;100.00
28354;BME280;15603;50.878;8.036;2023-10-08T01:51:06;144886.03;;;6.86;100.00
28354;BME280;15603;50.878;8.036;2023-10-08T01:53:38;144886.03;;;6.86;100.00
28354;BME280;15603;50.878;8.036;2023-10-08T01:56:05;144875.16;;;6.82;100.00
28354;BME280;15603;50.878;8.036;2023-10-08T01:58:33;144852.13;;;6.72;100.00
28354;BME280;15603;50.878;8.036;2023-10-08T02:01:02;144842.41;;;6.68;100.00
28354;BME280;15603;50.878;8.036;2023-10-08T02:03:32;144841.19;;;6.67;100.00
28354;BME280;15603;50.878;8.036;2023-10-08T02:06:01;144827.84;;;6.62;100.00
28354;BME280;15603;50.878;8.036;2023-10-08T02:08:32;144784.25;;;6.43;100.00
28354;BME280;15603;50.878;8.036;2023-10-08T02:10:59;144787.88;;;6.45;100.00
28354;BME280;15603;50.878;8.036;2023-10-08T02:13:29;144704.25;;;6.09;100.00
28354;BME280;15603;50.878;8.036;2023-10-08T02:15:57;144846.03;;;6.69;100.00
28354;BME280;15603;50.878;8.036;2023-10-08T02:18:25;144873.94;;;6.81;100.00
28354;BME280;15603;50.878;8.036;2023-10-08T02:20:52;144916.34;;;6.99;100.00
28354;BME280;15603;50.878;8.036;2023-10-08T02:23:20;144951.53;;;7.14;100.00
28354;BME280;15603;50.878;8.036;2023-10-08T02:25:47;144951.53;;;7.14;100.00
28354;BME280;15603;50.878;8.036;2023-10-08T02:28:15;144961.22;;;7.18;100.00
28354;BME280;15603;50.878;8.036;2023-10-08T02:30:43;144970.91;;;7.22;100.00
28354;BME280;15603;50.878;8.036;2023-10-08T02:33:10;144962.44;;;7.19;100.00
28354;BME280;15603;50.878;8.036;2023-10-08T02:35:45;144970.91;;;7.22;100.00
28354;BME280;15603;50.878;8.036;2023-10-08T02:38:17;144963.63;;;7.19;100.00
28354;BME280;15603;50.878;8.036;2023-10-08T02:40:45;144933.34;;;7.06;100.00
28354;BME280;15603;50.878;8.036;2023-10-08T02:43:16;144920.00;;;7.01;100.00
28354;BME280;15603;50.878;8.036;2023-10-08T02:45:44;144895.72;;;6.91;100.00
28354;BME280;15603;50.878;8.036;2023-10-08T02:48:22;144933.34;;;7.06;100.00
28354;BME280;15603;50.878;8.036;2023-10-08T02:50:50;144892.13;;;6.89;100.00
28354;BME280;15603;50.878;8.036;2023-10-08T02:53:20;144901.81;;;6.93;100.00
28354;BME280;15603;50.878;8.036;2023-10-08T02:55:52;144901.81;;;6.93;100.00
28354;BME280;15603;50.878;8.036;2023-10-08T02:58:20;144903.00;;;6.94;100.00
28354;BME280;15603;50.878;8.036;2023-10-08T03:00:48;144905.41;;;6.95;100.00
28354;BME280;15603;50.878;8.036;2023-10-08T03:03:16;144910.31;;;6.97;100.00
28354;BME280;15603;50.878;8.036;2023-10-08T03:05:51;144895.72;;;6.91;100.00
28354;BME280;15603;50.878;8.036;2023-10-08T03:08:19;144905.41;;;6.95;100.00
28354;BME280;15603;50.878;8.036;2023-10-08T03:10:52;144907.88;;;6.96;100.00
28354;BME280;15603;50.878;8.036;2023-10-08T03:13:23;144907.88;;;6.96;100.00
28354;BME280;15603;50.878;8.036;2023-10-08T03:15:50;144929.69;;;7.05;100.00
28354;BME280;15603;50.878;8.036;2023-10-08T03:18:30;144929.69;;;7.05;100.00
28354;BME280;15603;50.878;8.036;2023-10-08T03:21:05;144856.97;;;6.74;100.00
28354;BME280;15603;50.878;8.036;2023-10-08T03:23:50;144733.34;;;6.22;100.00
28354;BME280;15603;50.878;8.036;2023-10-08T03:26:19;144852.13;;;6.72;100.00
28354;BME280;15603;50.878;8.036;2023-10-08T03:29:00;144852.13;;;6.72;100.00
28354;BME280;15603;50.878;8.036;2023-10-08T03:31:32;144848.47;;;6.71;100.00
28354;BME280;15603;50.878;8.036;2023-10-08T03:34:25;144839.97;;;6.67;100.00
28354;BME280;15603;50.878;8.036;2023-10-08T03:37:01;144808.47;;;6.54;100.00
28354;BME280;15603;50.878;8.036;2023-10-08T03:39:34;144818.16;;;6.58;100.00
28354;BME280;15603;50.878;8.036;2023-10-08T03:42:23;144813.31;;;6.56;100.00
28354;BME280;15603;50.878;8.036;2023-10-08T03:44:51;144803.63;;;6.52;100.00
28354;BME280;15603;50.878;8.036;2023-10-08T03:47:19;144792.72;;;6.47;100.00
28354;BME280;15603;50.878;8.036;2023-10-08T03:49:49;144837.56;;;6.66;100.00
28354;BME280;15603;50.878;8.036;2023-10-08T03:52:17;144864.22;;;6.77;100.00
28354;BME280;15603;50.878;8.036;2023-10-08T03:54:56;144881.19;;;6.84;100.00
28354;BME280;15603;50.878;8.036;2023-10-08T03:57:43;144853.31;;;6.73;100.00
28354;BME280;15603;50.878;8.036;2023-10-08T04:00:11;144820.59;;;6.59;100.00
28354;BME280;15603;50.878;8.036;2023-10-08T04:02:45;144825.44;;;6.61;100.00
28354;BME280;15603;50.878;8.036;2023-10-08T04:05:36;144844.81;;;6.69;100.00
28354;BME280;15603;50.878;8.036;2023-10-08T04:08:29;144836.34;;;6.65;100.00
28354;BME280;15603;50.878;8.036;2023-10-08T04:11:25;144809.66;;;6.54;100.00
28354;BME280;15603;50.878;8.036;2023-10-08T04:14:02;144784.25;;;6.43;100.00
28354;BME280;15603;50.878;8.036;2023-10-08T04:16:32;144767.25;;;6.36;100.00
28354;BME280;15603;50.878;8.036;2023-10-08T04:19:04;144736.97;;;6.23;100.00
28354;BME280;15603;50.878;8.036;2023-10-08T04:21:31;144752.72;;;6.30;100.00
28354;BME280;15603;50.878;8.036;2023-10-08T04:24:01;144736.97;;;6.23;100.00
28354;BME280;15603;50.878;8.036;2023-10-08T04:26:30;144723.63;;;6.18;100.00
28354;BME280;15603;50.878;8.036;2023-10-08T04:29:00;144711.53;;;6.13;100.00
28354;BME280;15603;50.878;8.036;2023-10-08T04:31:33;144697.00;;;6.06;100.00
28354;BME280;15603;50.878;8.036;2023-10-08T04:34:05;144695.75;;;6.06;100.00
28354;BME280;15603;50.878;8.036;2023-10-08T04:36:49;144699.41;;;6.07;100.00
28354;BME280;15603;50.878;8.036;2023-10-08T04:39:22;144689.72;;;6.03;100.00
28354;BME280;15603;50.878;8.036;2023-10-08T04:41:53;144687.28;;;6.02;100.00
28354;BME280;15603;50.878;8.036;2023-10-08T04:44:21;144689.72;;;6.03;100.00
28354;BME280;15603;50.878;8.036;2023-10-08T04:46:48;144672.75;;;5.96;100.00
28354;BME280;15603;50.878;8.036;2023-10-08T04:49:19;144695.75;;;6.06;100.00
28354;BME280;15603;50.878;8.036;2023-10-08T04:51:58;144699.41;;;6.07;100.00
28354;BME280;15603;50.878;8.036;2023-10-08T04:54:29;144694.56;;;6.05;100.00
28354;BME280;15603;50.878;8.036;2023-10-08T04:57:00;144671.56;;;5.96;100.00
28354;BME280;15603;50.878;8.036;2023-10-08T04:59:30;144730.91;;;6.21;100.00
28354;BME280;15603;50.878;8.036;2023-10-08T05:02:02;144730.91;;;6.21;100.00
28354;BME280;15603;50.878;8.036;2023-10-08T05:04:50;144718.78;;;6.16;100.00
28354;BME280;15603;50.878;8.036;2023-10-08T05:07:36;144705.44;;;6.10;100.00
28354;BME280;15603;50.878;8.036;2023-10-08T05:10:14;144726.06;;;6.19;100.00
28354;BME280;15603;50.878;8.036;2023-10-08T05:13:04;144756.38;;;6.32;100.00
28354;BME280;15603;50.878;8.036;2023-10-08T05:15:32;144689.72;;;6.03;100.00
28354;BME280;15603;50.878;8.036;2023-10-08T05:18:09;144744.25;;;6.26;100.00
28354;BME280;15603;50.878;8.036;2023-10-08T05:20:56;144781.78;;;6.42;100.00
28354;BME280;15603;50.878;8.036;2023-10-08T05:23:29;144789.09;;;6.45;100.00
28354;BME280;15603;50.878;8.036;2023-10-08T05:25:57;144792.72;;;6.47;100.00
28354;BME280;15603;50.878;8.036;2023-10-08T05:28:35;144775.75;;;6.40;100.00
28354;BME280;15603;50.878;8.036;2023-10-08T05:31:14;144716.38;;;6.15;100.00
28354;BME280;15603;50.878;8.036;2023-10-08T05:33:42;144746.69;;;6.27;100.00
28354;BME280;15603;50.878;8.036;2023-10-08T05:36:28;144745.44;;;6.27;100.00
28354;BME280;15603;50.878;8.036;2023-10-08T05:39:02;144745.44;;;6.27;100.00
28354;BME280;15603;50.878;8.036;2023-10-08T05:41:52;144730.91;;;6.21;100.00
28354;BME280;15603;50.878;8.036;2023-10-08T05:44:32;144755.13;;;6.31;100.00
28354;BME280;15603;50.878;8.036;2023-10-08T05:47:13;144715.19;;;6.14;100.00
28354;BME280;15603;50.878;8.036;2023-10-08T05:50:06;144772.09;;;6.38;100.00
28354;BME280;15603;50.878;8.036;2023-10-08T05:52:43;144772.09;;;6.38;100.00
28354;BME280;15603;50.878;8.036;2023-10-08T05:55:28;144743.03;;;6.26;100.00
28354;BME280;15603;50.878;8.036;2023-10-08T05:58:05;144791.47;;;6.46;100.00
28354;BME280;15603;50.878;8.036;2023-10-08T06:01:01;144793.94;;;6.47;100.00
28354;BME280;15603;50.878;8.036;2023-10-08T06:03:34;144770.91;;;6.38;100.00
28354;BME280;15603;50.878;8.036;2023-10-08T06:06:31;144797.56;;;6.49;100.00
28354;BME280;15603;50.878;8.036;2023-10-08T06:09:04;144749.09;;;6.28;100.00
28354;BME280;15603;50.878;8.036;2023-10-08T06:11:48;144707.91;;;6.11;100.00
28354;BME280;15603;50.878;8.036;2023-10-08T06:14:37;144816.97;;;6.57;100.00
28354;BME280;15603;50.878;8.036;2023-10-08T06:17:22;144818.16;;;6.58;100.00
28354;BME280;15603;50.878;8.036;2023-10-08T06:20:25;144812.09;;;6.55;100.00
28354;BME280;15603;50.878;8.036;2023-10-08T06:22:54;144791.47;;;6.46;100.00
28354;BME280;15603;50.878;8.036;2023-10-08T06:25:27;144793.94;;;6.47;100.00
28354;BME280;15603;50.878;8.036;2023-10-08T06:27:55;144798.78;;;6.49;100.00
28354;BME280;15603;50.878;8.036;2023-10-08T06:30:23;144808.47;;;6.54;100.00
28354;BME280;15603;50.878;8.036;2023-10-08T06:32:56;144806.06;;;6.53;100.00
28354;BME280;15603;50.878;8.036;2023-10-08T06:35:24;144818.16;;;6.58;100.00
28354;BME280;15603;50.878;8.036;2023-10-08T06:37:53;144827.84;;;6.62;100.00
28354;BME280;15603;50.878;8.036;2023-10-08T06:40:26;144713.94;;;6.14;100.00
28354;BME280;15603;50.878;8.036;2023-10-08T06:43:06;144799.97;;;6.50;100.00
28354;BME280;15603;50.878;8.036;2023-10-08T06:45:45;144809.66;;;6.54;100.00
28354;BME280;15603;50.878;8.036;2023-10-08T06:48:14;144819.41;;;6.58;100.00
28354;BME280;15603;50.878;8.036;2023-10-08T06:50:48;144734.56;;;6.22;100.00
28354;BME280;15603;50.878;8.036;2023-10-08T06:53:17;144895.72;;;6.91;100.00
28354;BME280;15603;50.878;8.036;2023-10-08T06:55:49;144890.88;;;6.88;100.00
28354;BME280;15603;50.878;8.036;2023-10-08T06:58:24;144966.06;;;7.20;100.00
28354;BME280;15603;50.878;8.036;2023-10-08T07:00:52;144996.34;;;7.33;100.00
28354;BME280;15603;50.878;8.036;2023-10-08T07:03:22;145019.44;;;7.43;100.00
28354;BME280;15603;50.878;8.036;2023-10-08T07:05:51;145048.53;;;7.55;100.00
28354;BME280;15603;50.878;8.036;2023-10-08T07:08:26;145065.50;;;7.62;100.00
28354;BME280;15603;50.878;8.036;2023-10-08T07:10:54;144973.31;;;7.23;100.00
28354;BME280;15603;50.878;8.036;2023-10-08T07:13:23;145135.84;;;7.92;100.00
28354;BME280;15603;50.878;8.036;2023-10-08T07:15:52;145122.50;;;7.86;100.00
28354;BME280;15603;50.878;8.036;2023-10-08T07:18:19;145121.31;;;7.86;100.00
28354;BME280;15603;50.878;8.036;2023-10-08T07:20:53;145149.19;;;7.98;100.00
28354;BME280;15603;50.878;8.036;2023-10-08T07:23:21;145160.09;;;8.02;100.00
28354;BME280;15603;50.878;8.036;2023-10-08T07:25:53;145172.25;;;8.07;100.00
28354;BME280;15603;50.878;8.036;2023-10-08T07:28:24;145194.09;;;8.17;100.00
28354;BME280;15603;50.878;8.036;2023-10-08T07:30:52;145202.59;;;8.20;100.00
28354;BME280;15603;50.878;8.036;2023-10-08T07:33:19;145228.06;;;8.31;100.00
28354;BME280;15603;50.878;8.036;2023-10-08T07:35:47;145121.31;;;7.86;100.00
28354;BME280;15603;50.878;8.036;2023-10-08T07:38:38;145226.84;;;8.31;100.00
28354;BME280;15603;50.878;8.036;2023-10-08T07:41:10;145172.25;;;8.07;100.00
28354;BME280;15603;50.878;8.036;2023-10-08T07:43:41;145215.94;;;8.26;100.00
28354;BME280;15603;50.878;8.036;2023-10-08T07:46:13;145237.81;;;8.35;100.00
28354;BME280;15603;50.878;8.036;2023-10-08T07:48:42;145257.25;;;8.43;100.00
28354;BME280;15603;50.878;8.036;2023-10-08T07:51:09;145274.25;;;8.51;100.00
28354;BME280;15603;50.878;8.036;2023-10-08T07:53:36;145281.50;;;8.54;100.00
28354;BME280;15603;50.878;8.036;2023-10-08T07:56:08;145253.59;;;8.42;100.00
28354;BME280;15603;50.878;8.036;2023-10-08T07:58:38;145293.66;;;8.59;100.00
28354;BME280;15603;50.878;8.036;2023-10-08T08:01:08;145194.09;;;8.17;100.00
28354;BME280;15603;50.878;8.036;2023-10-08T08:03:36;145343.44;;;8.80;100.00
28354;BME280;15603;50.878;8.036;2023-10-08T08:06:05;145408.97;;;9.08;100.00
28354;BME280;15603;50.878;8.036;2023-10-08T08:08:36;145391.97;;;9.00;100.00
28354;BME280;15603;50.878;8.036;2023-10-08T08:11:05;145412.63;;;9.09;99.70
28354;BME280;15603;50.878;8.036;2023-10-08T08:13:39;145395.63;;;9.02;100.00
28354;BME280;15603;50.878;8.036;2023-10-08T08:16:16;145310.66;;;8.66;100.00
28354;BME280;15603;50.878;8.036;2023-10-08T08:18:50;145357.97;;;8.86;100.00
28354;BME280;15603;50.878;8.036;2023-10-08T08:21:19;145337.31;;;8.77;100.00
28354;BME280;15603;50.878;8.036;2023-10-08T08:23:47;145269.34;;;8.49;100.00
28354;BME280;15603;50.878;8.036;2023-10-08T08:26:22;145398.06;;;9.03;100.00
28354;BME280;15603;50.878;8.036;2023-10-08T08:28:57;145325.22;;;8.72;100.00
28354;BME280;15603;50.878;8.036;2023-10-08T08:31:28;145438.13;;;9.20;100.00
28354;BME280;15603;50.878;8.036;2023-10-08T08:33:58;145434.47;;;9.18;100.00
28354;BME280;15603;50.878;8.036;2023-10-08T08:36:44;145451.44;;;9.26;100.00
28354;BME280;15603;50.878;8.036;2023-10-08T08:39:16;145432.03;;;9.17;100.00
28354;BME280;15603;50.878;8.036;2023-10-08T08:42:03;145494.00;;;9.43;100.00
28354;BME280;15603;50.878;8.036;2023-10-08T08:44:42;145511.00;;;9.51;100.00
28354;BME280;15603;50.878;8.036;2023-10-08T08:47:14;145432.03;;;9.17;100.00
28354;BME280;15603;50.878;8.036;2023-10-08T08:49:46;145577.78;;;9.79;100.00
28354;BME280;15603;50.878;8.036;2023-10-08T08:52:14;145525.56;;;9.57;100.00
28354;BME280;15603;50.878;8.036;2023-10-08T08:54:41;145526.78;;;9.57;99.83
28354;BME280;15603;50.878;8.036;2023-10-08T08:57:11;145660.38;;;10.14;97.98
28354;BME280;15603;50.878;8.036;2023-10-08T08:59:52;145740.66;;;10.48;96.81
28354;BME280;15603;50.878;8.036;2023-10-08T09:02:20;145772.25;;;10.61;96.44
28354;BME280;15603;50.878;8.036;2023-10-08T09:04:48;145745.50;;;10.50;97.78
28354;BME280;15603;50.878;8.036;2023-10-08T09:07:20;145672.56;;;10.19;98.32
28354;BME280;15603;50.878;8.036;2023-10-08T09:09:48;145639.75;;;10.05;99.92
28354;BME280;15603;50.878;8.036;2023-10-08T09:12:17;145662.84;;;10.15;98.51
28354;BME280;15603;50.878;8.036;2023-10-08T09:14:46;145649.47;;;10.09;98.69
28354;BME280;15603;50.878;8.036;2023-10-08T09:17:16;145611.81;;;9.93;100.00
28354;BME280;15603;50.878;8.036;2023-10-08T09:19:45;145638.56;;;10.05;100.00
28354;BME280;15603;50.878;8.036;2023-10-08T09:22:12;145587.50;;;9.83;100.00
28354;BME280;15603;50.878;8.036;2023-10-08T09:24:42;145644.63;;;10.07;100.00
28354;BME280;15603;50.878;8.036;2023-10-08T09:27:10;145534.06;;;9.60;100.00
28354;BME280;15603;50.878;8.036;2023-10-08T09:29:46;145620.31;;;9.97;100.00
28354;BME280;15603;50.878;8.036;2023-10-08T09:32:13;145616.69;;;9.95;100.00
28354;BME280;15603;50.878;8.036;2023-10-08T09:34:42;145464.81;;;9.31;100.00
28354;BME280;15603;50.878;8.036;2023-10-08T09:37:10;145565.66;;;9.74;100.00
28354;BME280;15603;50.878;8.036;2023-10-08T09:39:39;145549.84;;;9.67;100.00
28354;BME280;15603;50.878;8.036;2023-10-08T09:42:08;145577.78;;;9.79;100.00
28354;BME280;15603;50.878;8.036;2023-10-08T09:44:39;145582.63;;;9.81;100.00
28354;BME280;15603;50.878;8.036;2023-10-08T09:47:08;145597.19;;;9.87;100.00
28354;BME280;15603;50.878;8.036;2023-10-08T09:50:25;145677.41;;;10.21;100.00
28354;BME280;15603;50.878;8.036;2023-10-08T09:52:40;145706.59;;;10.33;99.65
28354;BME280;15603;50.878;8.036;2023-10-08T09:55:11;145684.72;;;10.24;99.94
28354;BME280;15603;50.878;8.036;2023-10-08T09:57:40;145621.53;;;9.97;100.00
28354;BME280;15603;50.878;8.036;2023-10-08T10:00:09;145527.97;;;9.58;100.00
28354;BME280;15603;50.878;8.036;2023-10-08T10:02:46;145551.06;;;9.68;100.00
28354;BME280;15603;50.878;8.036;2023-10-08T10:05:19;145545.00;;;9.65;100.00
28354;BME280;15603;50.878;8.036;2023-10-08T10:07:54;145570.50;;;9.76;100.00
28354;BME280;15603;50.878;8.036;2023-10-08T10:10:29;145593.59;;;9.86;100.00
28354;BME280;15603;50.878;8.036;2023-10-08T10:13:06;145636.09;;;10.03;100.00
28354;BME280;15603;50.878;8.036;2023-10-08T10:15:37;145626.38;;;9.99;100.00
28354;BME280;15603;50.878;8.036;2023-10-08T10:20:52;145709.06;;;10.34;100.00
28354;BME280;15603;50.878;8.036;2023-10-08T10:23:37;145703.00;;;10.32;100.00
28354;BME280;15603;50.878;8.036;2023-10-08T10:31:49;145679.84;;;10.22;100.00
28354;BME280;15603;50.878;8.036;2023-10-08T10:34:22;145687.13;;;10.25;100.00
28354;BME280;15603;50.878;8.036;2023-10-08T10:36:51;145679.84;;;10.22;100.00
28354;BME280;15603;50.878;8.036;2023-10-08T10:39:24;145712.72;;;10.36;100.00
28354;BME280;15603;50.878;8.036;2023-10-08T10:42:01;145733.34;;;10.45;100.00
28354;BME280;15603;50.878;8.036;2023-10-08T10:44:30;145733.34;;;10.45;100.00
28354;BME280;15603;50.878;8.036;2023-10-08T10:46:59;145761.28;;;10.56;100.00
28354;BME280;15603;50.878;8.036;2023-10-08T10:49:48;145773.47;;;10.61;100.00
28354;BME280;15603;50.878;8.036;2023-10-08T10:52:42;145852.47;;;10.95;99.71
28354;BME280;15603;50.878;8.036;2023-10-08T10:55:19;145868.28;;;11.02;99.70
28354;BME280;15603;50.878;8.036;2023-10-08T10:57:58;145903.56;;;11.16;98.07
28354;BME280;15603;50.878;8.036;2023-10-08T11:00:42;145947.31;;;11.35;96.84
28354;BME280;15603;50.878;8.036;2023-10-08T11:03:10;145976.53;;;11.47;98.65
28354;BME280;15603;50.878;8.036;2023-10-08T11:05:45;145953.44;;;11.37;96.86
28354;BME280;15603;50.878;8.036;2023-10-08T11:08:19;145995.97;;;11.55;96.65
28354;BME280;15603;50.878;8.036;2023-10-08T11:10:47;146098.19;;;11.98;95.59
28354;BME280;15603;50.878;8.036;2023-10-08T11:13:19;146027.59;;;11.69;95.21
28354;BME280;15603;50.878;8.036;2023-10-08T11:15:50;146051.91;;;11.79;96.03
28354;BME280;15603;50.878;8.036;2023-10-08T11:18:21;145991.13;;;11.53;95.45
28354;BME280;15603;50.878;8.036;2023-10-08T11:20:50;146089.66;;;11.95;97.13
28354;BME280;15603;50.878;8.036;2023-10-08T11:23:37;146122.56;;;12.09;93.69
28354;BME280;15603;50.878;8.036;2023-10-08T11:26:08;146073.81;;;11.88;92.86
28354;BME280;15603;50.878;8.036;2023-10-08T11:28:39;146045.84;;;11.76;94.46
28354;BME280;15603;50.878;8.036;2023-10-08T11:31:11;146011.78;;;11.62;96.06
28354;BME280;15603;50.878;8.036;2023-10-08T11:33:42;145991.13;;;11.53;95.78
28354;BME280;15603;50.878;8.036;2023-10-08T11:36:17;145977.72;;;11.48;95.67
28354;BME280;15603;50.878;8.036;2023-10-08T11:38:47;145975.28;;;11.47;98.07
28354;BME280;15603;50.878;8.036;2023-10-08T11:41:16;145993.53;;;11.54;97.50
28354;BME280;15603;50.878;8.036;2023-10-08T11:43:51;146015.41;;;11.64;98.46
28354;BME280;15603;50.878;8.036;2023-10-08T11:48:54;146053.13;;;11.79;96.10
28354;BME280;15603;50.878;8.036;2023-10-08T11:51:24;146073.81;;;11.88;94.80
28354;BME280;15603;50.878;8.036;2023-10-08T11:53:56;146027.59;;;11.69;96.48
28354;BME280;15603;50.878;8.036;2023-10-08T11:56:24;146047.06;;;11.77;95.25
28354;BME280;15603;50.878;8.036;2023-10-08T11:58:51;146010.56;;;11.62;96.25
28354;BME280;15603;50.878;8.036;2023-10-08T12:01:19;145981.38;;;11.49;97.01
28354;BME280;15603;50.878;8.036;2023-10-08T12:03:47;145935.19;;;11.30;98.25
28354;BME280;15603;50.878;8.036;2023-10-08T12:06:17;145862.22;;;10.99;98.45
28354;BME280;15603;50.878;8.036;2023-10-08T12:08:48;145964.34;;;11.42;97.10
28354;BME280;15603;50.878;8.036;2023-10-08T12:11:20;146026.41;;;11.68;96.47
28354;BME280;15603;50.878;8.036;2023-10-08T12:13:49;146055.56;;;11.81;96.99
28354;BME280;15603;50.878;8.036;2023-10-08T12:16:17;146095.78;;;11.97;95.70
28354;BME280;15603;50.878;8.036;2023-10-08T12:18:50;146105.50;;;12.02;95.25
28354;BME280;15603;50.878;8.036;2023-10-08T12:21:21;146105.50;;;12.02;95.76
28354;BME280;15603;50.878;8.036;2023-10-08T12:23:48;146005.69;;;11.59;93.43
28354;BME280;15603;50.878;8.036;2023-10-08T12:26:18;146090.91;;;11.95;93.74
28354;BME280;15603;50.878;8.036;2023-10-08T12:28:47;146037.31;;;11.73;94.85
28354;BME280;15603;50.878;8.036;2023-10-08T12:31:16;146087.25;;;11.94;94.94
28354;BME280;15603;50.878;8.036;2023-10-08T12:33:43;146094.53;;;11.97;93.19
28354;BME280;15603;50.878;8.036;2023-10-08T12:36:11;146049.50;;;11.78;96.20
28354;BME280;15603;50.878;8.036;2023-10-08T12:38:40;146115.22;;;12.06;96.78
28354;BME280;15603;50.878;8.036;2023-10-08T12:41:11;146120.09;;;12.08;91.27
28354;BME280;15603;50.878;8.036;2023-10-08T12:43:43;146171.19;;;12.29;88.48
28354;BME280;15603;50.878;8.036;2023-10-08T12:46:13;146183.38;;;12.34;89.73
28354;BME280;15603;50.878;8.036;2023-10-08T12:48:45;146120.09;;;12.08;92.00
28354;BME280;15603;50.878;8.036;2023-10-08T12:51:15;146133.47;;;12.13;94.11
28354;BME280;15603;50.878;8.036;2023-10-08T12:53:43;146118.88;;;12.07;92.16
28354;BME280;15603;50.878;8.036;2023-10-08T12:56:17;146120.09;;;12.08;94.09
28354;BME280;15603;50.878;8.036;2023-10-08T12:58:48;146110.38;;;12.04;95.86
28354;BME280;15603;50.878;8.036;2023-10-08T13:01:16;146129.81;;;12.12;94.58
28354;BME280;15603;50.878;8.036;2023-10-08T13:03:47;146103.06;;;12.01;95.22
28354;BME280;15603;50.878;8.036;2023-10-08T13:06:18;146110.38;;;12.04;92.81
28354;BME280;15603;50.878;8.036;2023-10-08T13:08:49;146117.69;;;12.07;94.66
28354;BME280;15603;50.878;8.036;2023-10-08T13:11:20;146027.59;;;11.69;95.42
28354;BME280;15603;50.878;8.036;2023-10-08T13:16:20;146197.97;;;12.41;93.32
28354;BME280;15603;50.878;8.036;2023-10-08T13:18:50;146222.28;;;12.51;89.45
28354;BME280;15603;50.878;8.036;2023-10-08T13:21:19;146261.25;;;12.67;93.16
28354;BME280;15603;50.878;8.036;2023-10-08T13:23:46;146250.34;;;12.63;93.64
28354;BME280;15603;50.878;8.036;2023-10-08T13:26:18;146266.13;;;12.69;92.14
28354;BME280;15603;50.878;8.036;2023-10-08T13:28:49;146251.53;;;12.63;91.22
28354;BME280;15603;50.878;8.036;2023-10-08T13:31:17;146183.38;;;12.34;92.39
28354;BME280;15603;50.878;8.036;2023-10-08T13:33:46;146131.03;;;12.12;92.97